Time;durP1;ratioP1;P1;durP2;ratioP2;P2;SDS_P1;SDS_P2;PMS_P1;PMS_P2;Temp;Humidity;BMP_temperature;BMP_pressure;BME280_temperature;BME280_humidity;BME280_pressure;Samples;Min_cycle;Max_cycle;Signal;HPM_P1;HPM_P2
2021/06/11 00:01:28;;;;;;;2.65;2.40;;;23.50;87.80;;;;;;5111235;28;20206;-74
2021/06/11 00:03:54;;;;;;;3.42;2.35;;;23.40;87.70;;;;;;5110636;28;20237;-74
2021/06/11 00:06:20;;;;;;;2.97;2.40;;;23.40;87.80;;;;;;5111140;28;20197;-74
2021/06/11 00:08:46;;;;;;;2.78;2.58;;;23.40;88.00;;;;;;5110955;28;20232;-75
2021/06/11 00:11:12;;;;;;;2.60;2.40;;;23.40;88.30;;;;;;5111007;28;20206;-75
2021/06/11 00:13:40;;;;;;;2.67;2.55;;;23.40;88.60;;;;;;5111005;28;20277;-75
2021/06/11 00:16:06;;;;;;;3.05;2.78;;;23.40;88.90;;;;;;5110447;28;20202;-75
2021/06/11 00:18:32;;;;;;;2.42;2.30;;;23.40;89.20;;;;;;5110861;28;20206;-75
2021/06/11 00:20:59;;;;;;;2.65;2.50;;;23.40;89.50;;;;;;5110964;28;20572;-74
2021/06/11 00:23:25;;;;;;;2.88;2.53;;;23.30;90.00;;;;;;5110876;28;20203;-75
2021/06/11 00:25:51;;;;;;;2.65;2.50;;;23.30;90.20;;;;;;5110662;28;20215;-74
2021/06/11 00:28:17;;;;;;;4.35;2.65;;;23.30;90.30;;;;;;5110515;28;20206;-74
2021/06/11 00:30:45;;;;;;;5.45;2.75;;;23.30;90.30;;;;;;5110600;28;20222;-75
2021/06/11 00:33:11;;;;;;;2.92;2.67;;;23.30;90.30;;;;;;5110867;28;20202;-77
2021/06/11 00:35:38;;;;;;;2.80;2.60;;;23.30;90.20;;;;;;5110464;28;20206;-75
2021/06/11 00:38:04;;;;;;;3.15;2.90;;;23.20;90.30;;;;;;5110594;28;20206;-76
2021/06/11 00:40:32;;;;;;;3.88;2.95;;;23.20;90.50;;;;;;5110561;28;20210;-75
2021/06/11 00:42:58;;;;;;;2.80;2.47;;;23.20;90.70;;;;;;5110378;28;20206;-76
2021/06/11 00:45:24;;;;;;;2.60;2.50;;;23.20;90.80;;;;;;5110584;28;20203;-75
2021/06/11 00:47:52;;;;;;;2.70;2.53;;;23.20;91.00;;;;;;5109816;28;20206;-72
2021/06/11 00:50:22;;;;;;;2.88;2.63;;;23.10;91.20;;;;;;5110125;28;20238;-73
2021/06/11 00:52:50;;;;;;;2.95;2.75;;;23.10;91.50;;;;;;5110136;28;20338;-72
2021/06/11 00:55:16;;;;;;;6.20;2.70;;;23.00;91.70;;;;;;5109930;28;20258;-73
2021/06/11 00:57:42;;;;;;;3.80;2.70;;;23.00;92.00;;;;;;5109856;28;20202;-74
2021/06/11 01:00:10;;;;;;;3.03;2.83;;;23.00;92.30;;;;;;5110083;28;20560;-73
2021/06/11 01:02:36;;;;;;;5.40;2.80;;;23.00;92.50;;;;;;5110142;28;20247;-73
2021/06/11 01:05:05;;;;;;;2.63;2.42;;;23.00;92.80;;;;;;5109439;28;20242;-74
2021/06/11 01:07:33;;;;;;;2.80;2.70;;;23.00;93.30;;;;;;5109814;28;20220;-74
2021/06/11 01:09:59;;;;;;;3.10;2.80;;;23.00;93.40;;;;;;5109510;28;20233;-74
2021/06/11 01:12:26;;;;;;;4.38;2.80;;;23.00;93.50;;;;;;5109706;28;20603;-74
2021/06/11 01:14:53;;;;;;;2.72;2.63;;;23.00;93.70;;;;;;5109452;28;20214;-74
2021/06/11 01:17:20;;;;;;;3.15;2.85;;;23.00;93.80;;;;;;5109829;28;20216;-74
2021/06/11 01:19:48;;;;;;;2.97;2.75;;;22.90;93.90;;;;;;5109750;28;20210;-74
2021/06/11 01:22:23;;;;;;;3.63;2.85;;;22.90;94.00;;;;;;5109620;28;20206;-74
2021/06/11 01:25:00;;;;;;;2.95;2.85;;;22.90;94.10;;;;;;5109821;28;20197;-74
2021/06/11 01:27:29;;;;;;;2.78;2.58;;;22.90;94.10;;;;;;5108508;28;20213;-74
2021/06/11 01:30:03;;;;;;;3.25;3.05;;;22.80;94.20;;;;;;5109276;28;20226;-75
2021/06/11 01:32:31;;;;;;;3.92;3.25;;;22.80;94.30;;;;;;5109739;28;20308;-74
2021/06/11 01:34:57;;;;;;;3.25;3.00;;;22.70;94.50;;;;;;5109521;28;20198;-74
2021/06/11 01:37:32;;;;;;;3.17;2.97;;;22.70;94.50;;;;;;5109498;28;20205;-74
2021/06/11 01:40:02;;;;;;;3.58;3.38;;;22.70;94.40;;;;;;5109634;28;20551;-74
2021/06/11 01:42:30;;;;;;;4.70;3.47;;;22.70;94.60;;;;;;5109431;28;20228;-74
2021/06/11 01:44:57;;;;;;;2.95;2.65;;;22.70;94.70;;;;;;5109052;28;20218;-74
2021/06/11 01:47:24;;;;;;;3.60;3.30;;;22.70;94.50;;;;;;5109025;28;20202;-74
2021/06/11 01:49:51;;;;;;;3.30;3.10;;;22.70;94.30;;;;;;5109039;28;20234;-75
2021/06/11 01:52:19;;;;;;;3.38;2.85;;;22.60;94.10;;;;;;5109140;28;20202;-75
2021/06/11 01:54:46;;;;;;;2.88;2.60;;;22.60;94.00;;;;;;5109132;28;20210;-74
2021/06/11 01:57:14;;;;;;;3.30;3.00;;;22.60;93.80;;;;;;5108412;28;20550;-74
2021/06/11 01:59:43;;;;;;;3.47;3.28;;;22.60;93.70;;;;;;5109307;28;20217;-75
2021/06/11 02:02:10;;;;;;;2.88;2.70;;;22.50;93.80;;;;;;5108970;28;20206;-75
2021/06/11 02:04:37;;;;;;;2.70;2.60;;;22.50;93.70;;;;;;5109024;28;20261;-75
2021/06/11 02:07:07;;;;;;;3.83;3.00;;;22.40;93.70;;;;;;5108635;28;20659;-75
2021/06/11 02:09:38;;;;;;;3.08;2.80;;;22.40;93.60;;;;;;5109034;28;20222;-74
2021/06/11 02:12:06;;;;;;;3.47;3.17;;;22.40;93.40;;;;;;5108844;28;20247;-75
2021/06/11 02:14:32;;;;;;;2.72;2.50;;;22.30;93.20;;;;;;5108771;28;20206;-74
2021/06/11 02:17:00;;;;;;;2.67;2.58;;;22.30;93.20;;;;;;5108642;28;20205;-74
2021/06/11 02:19:27;;;;;;;3.08;2.88;;;22.30;93.20;;;;;;5108815;28;20232;-74
2021/06/11 02:21:53;;;;;;;3.13;2.92;;;22.30;93.10;;;;;;5108636;28;20202;-73
2021/06/11 02:24:20;;;;;;;3.22;2.90;;;22.20;93.40;;;;;;5108646;28;20210;-73
2021/06/11 02:26:47;;;;;;;3.20;3.00;;;22.20;93.00;;;;;;5108525;28;20202;-73
2021/06/11 02:29:13;;;;;;;2.95;2.75;;;22.20;93.00;;;;;;5108323;28;20228;-74
2021/06/11 02:31:40;;;;;;;3.17;2.90;;;22.20;93.00;;;;;;5108752;28;20237;-75
2021/06/11 02:34:07;;;;;;;3.50;2.70;;;22.30;93.00;;;;;;5108777;28;20216;-75
2021/06/11 02:36:33;;;;;;;3.22;2.92;;;22.30;93.00;;;;;;5108913;28;20576;-75
2021/06/11 02:39:00;;;;;;;3.45;2.78;;;22.30;93.00;;;;;;5111374;28;20679;-74
2021/06/11 02:41:31;;;;;;;3.20;3.03;;;22.20;93.00;;;;;;5112808;28;20208;-74
2021/06/11 02:43:59;;;;;;;5.32;3.10;;;22.20;93.00;;;;;;5112704;28;20194;-74
2021/06/11 02:46:29;;;;;;;3.35;3.03;;;22.20;92.90;;;;;;5112834;28;20206;-74
2021/06/11 02:48:57;;;;;;;3.05;2.85;;;22.10;93.00;;;;;;5112723;28;20275;-74
2021/06/11 02:51:30;;;;;;;3.17;3.00;;;22.10;93.10;;;;;;5112722;28;20198;-75
2021/06/11 02:53:58;;;;;;;3.22;3.00;;;22.10;93.10;;;;;;5112316;28;20635;-74
2021/06/11 02:56:27;;;;;;;4.45;3.00;;;22.10;93.10;;;;;;5112578;28;20229;-74
2021/06/11 02:59:00;;;;;;;3.25;2.92;;;22.00;93.10;;;;;;5112225;28;20213;-74
2021/06/11 03:01:28;;;;;;;3.40;3.10;;;22.00;93.10;;;;;;5112282;28;20190;-75
2021/06/11 03:03:58;;;;;;;3.20;3.00;;;22.00;93.10;;;;;;5112166;28;20238;-75
2021/06/11 03:06:26;;;;;;;5.03;3.40;;;22.10;93.10;;;;;;5111923;28;20205;-73
2021/06/11 03:08:53;;;;;;;3.28;3.08;;;22.00;93.00;;;;;;5111416;28;20691;-73
2021/06/11 03:11:28;;;;;;;3.30;3.03;;;22.00;92.90;;;;;;5111665;28;20202;-74
2021/06/11 03:13:55;;;;;;;3.28;2.95;;;22.00;92.80;;;;;;5111736;28;20190;-74
2021/06/11 03:16:27;;;;;;;4.82;3.60;;;22.00;92.90;;;;;;5112001;28;20561;-81
2021/06/11 03:18:55;;;;;;;3.15;2.88;;;22.00;92.80;;;;;;5109144;28;20212;-77
2021/06/11 03:21:24;;;;;;;2.70;2.60;;;22.00;92.70;;;;;;5109004;28;20210;-77
2021/06/11 03:23:56;;;;;;;3.30;3.10;;;22.00;92.80;;;;;;5109707;28;20218;-77
2021/06/11 03:26:26;;;;;;;3.22;3.03;;;22.00;92.80;;;;;;5109755;28;20282;-78
2021/06/11 03:28:55;;;;;;;3.15;2.95;;;22.00;92.90;;;;;;5109657;28;20230;-78
2021/06/11 03:31:25;;;;;;;3.30;3.00;;;22.00;93.30;;;;;;5109540;28;20892;-77
2021/06/11 03:33:58;;;;;;;3.97;3.28;;;21.90;93.10;;;;;;5109600;28;20648;-78
2021/06/11 03:36:29;;;;;;;3.63;3.20;;;22.00;93.10;;;;;;5110036;28;20205;-79
2021/06/11 03:39:01;;;;;;;3.58;3.28;;;21.80;93.20;;;;;;5109415;28;20616;-78
2021/06/11 03:41:28;;;;;;;3.85;3.13;;;21.90;93.50;;;;;;5109268;28;20263;-79
2021/06/11 03:43:55;;;;;;;4.20;3.50;;;21.90;93.60;;;;;;5109276;28;20210;-78
2021/06/11 03:46:23;;;;;;;3.30;3.10;;;21.90;93.60;;;;;;5109522;28;20210;-78
2021/06/11 03:48:53;;;;;;;3.58;3.28;;;21.90;93.60;;;;;;5109195;28;20237;-79
2021/06/11 03:51:20;;;;;;;3.85;3.17;;;21.90;93.60;;;;;;5108810;28;20213;-79
2021/06/11 03:53:48;;;;;;;3.63;3.33;;;21.90;93.70;;;;;;5109038;28;20298;-78
2021/06/11 03:56:18;;;;;;;3.63;3.33;;;21.90;93.80;;;;;;5109267;28;20258;-79
2021/06/11 03:58:46;;;;;;;3.40;3.10;;;21.90;93.90;;;;;;5111446;27;20248;-80
2021/06/11 04:01:19;;;;;;;4.30;3.30;;;21.90;94.00;;;;;;5130196;27;20193;-79
2021/06/11 04:03:45;;;;;;;3.40;3.10;;;21.90;94.00;;;;;;5128065;27;20193;-79
2021/06/11 04:06:16;;;;;;;4.80;3.50;;;21.90;94.00;;;;;;5130242;27;20189;-79
2021/06/11 04:08:43;;;;;;;3.77;3.47;;;21.90;94.10;;;;;;5127269;27;20569;-79
2021/06/11 04:11:14;;;;;;;3.72;3.42;;;21.90;94.10;;;;;;5130503;27;20201;-79
2021/06/11 04:13:48;;;;;;;4.37;3.63;;;21.90;94.20;;;;;;5127412;27;20201;-79
2021/06/11 04:16:19;;;;;;;3.80;3.40;;;21.90;94.20;;;;;;5130527;27;20221;-79
2021/06/11 04:18:47;;;;;;;4.18;3.58;;;21.90;94.30;;;;;;5128528;27;20186;-80
2021/06/11 04:21:20;;;;;;;4.07;3.78;;;21.90;94.40;;;;;;5130422;27;20197;-81
2021/06/11 04:23:47;;;;;;;3.42;3.13;;;21.90;94.50;;;;;;5128169;27;20228;-80
2021/06/11 04:26:15;;;;;;;4.15;3.75;;;21.90;94.50;;;;;;5129801;27;20194;-79
2021/06/11 04:28:43;;;;;;;5.18;3.72;;;21.90;94.60;;;;;;5127222;27;20208;-79
2021/06/11 04:31:09;;;;;;;4.10;3.72;;;21.90;94.80;;;;;;5129688;27;20213;-79
2021/06/11 04:33:36;;;;;;;3.80;3.40;;;21.90;94.90;;;;;;5129788;27;20189;-79
2021/06/11 04:36:03;;;;;;;4.03;3.72;;;21.90;95.00;;;;;;5129755;27;20197;-80
2021/06/11 04:38:35;;;;;;;4.15;3.65;;;21.90;95.10;;;;;;5124473;27;20190;-79
2021/06/11 04:41:01;;;;;;;5.70;3.70;;;21.90;95.10;;;;;;5127144;27;20193;-79
2021/06/11 04:43:28;;;;;;;5.50;3.40;;;21.90;95.10;;;;;;5129542;27;20197;-78
2021/06/11 04:45:55;;;;;;;5.60;3.63;;;21.90;95.10;;;;;;5126112;27;20194;-77
2021/06/11 04:48:21;;;;;;;3.70;3.40;;;21.90;95.10;;;;;;5124193;27;20194;-77
2021/06/11 04:50:47;;;;;;;4.30;4.00;;;21.90;94.90;;;;;;5122942;27;20222;-78
2021/06/11 04:53:13;;;;;;;4.20;3.80;;;21.90;94.70;;;;;;5120642;27;20202;-78
2021/06/11 04:55:39;;;;;;;4.27;3.87;;;21.90;94.60;;;;;;5127519;27;20221;-78
2021/06/11 04:58:05;;;;;;;7.07;3.53;;;22.00;94.60;;;;;;5127520;27;20644;-78
2021/06/11 05:00:32;;;;;;;5.00;4.27;;;22.00;94.60;;;;;;5122471;27;20201;-78
2021/06/11 05:02:59;;;;;;;4.78;4.05;;;22.00;94.60;;;;;;5128115;27;20198;-78
2021/06/11 05:05:25;;;;;;;4.68;3.58;;;22.00;94.60;;;;;;5129049;27;20244;-77
2021/06/11 05:07:51;;;;;;;4.30;3.90;;;22.10;94.70;;;;;;5129289;27;20190;-78
2021/06/11 05:10:18;;;;;;;4.80;4.38;;;22.10;94.90;;;;;;5129303;27;20224;-77
2021/06/11 05:12:44;;;;;;;3.85;3.60;;;22.10;95.00;;;;;;5129580;27;20202;-78
2021/06/11 05:15:11;;;;;;;4.60;4.30;;;22.20;95.00;;;;;;5129036;27;20206;-77
2021/06/11 05:17:38;;;;;;;4.65;4.20;;;22.20;94.90;;;;;;5129309;27;20233;-78
2021/06/11 05:20:07;;;;;;;4.38;4.10;;;22.30;94.60;;;;;;5129125;27;20655;-78
2021/06/11 05:22:33;;;;;;;4.25;3.85;;;22.30;94.50;;;;;;5128790;27;20550;-78
2021/06/11 05:25:01;;;;;;;4.25;3.95;;;22.30;94.50;;;;;;5125637;27;20240;-78
2021/06/11 05:27:27;;;;;;;4.55;4.10;;;22.40;94.20;;;;;;5128130;27;20630;-78
2021/06/11 05:29:53;;;;;;;4.57;4.28;;;22.40;94.20;;;;;;5128544;27;20260;-78
2021/06/11 05:32:19;;;;;;;4.40;4.00;;;22.50;94.70;;;;;;5128613;27;20190;-76
2021/06/11 05:34:45;;;;;;;4.20;3.92;;;22.50;94.80;;;;;;5122754;27;20891;-77
2021/06/11 05:37:12;;;;;;;4.85;4.45;;;22.60;94.90;;;;;;5123568;27;20287;-80
2021/06/11 05:39:38;;;;;;;4.90;4.60;;;22.60;94.90;;;;;;5125850;27;20205;-78
2021/06/11 05:42:05;;;;;;;5.13;4.72;;;22.70;95.10;;;;;;5128354;27;20225;-78
2021/06/11 05:44:31;;;;;;;5.18;4.88;;;22.70;95.60;;;;;;5128484;27;20198;-79
2021/06/11 05:46:58;;;;;;;4.60;4.20;;;22.70;95.70;;;;;;5128101;27;20238;-78
2021/06/11 05:49:24;;;;;;;4.82;4.55;;;22.80;95.50;;;;;;5128255;27;20737;-78
2021/06/11 05:51:51;;;;;;;6.03;4.78;;;22.80;95.60;;;;;;5128677;27;20235;-78
2021/06/11 05:54:18;;;;;;;3.72;3.53;;;22.80;95.60;;;;;;5128231;27;20220;-77
2021/06/11 05:56:44;;;;;;;4.75;3.97;;;22.80;95.20;;;;;;5125438;27;20213;-77
2021/06/11 05:59:11;;;;;;;4.75;4.30;;;22.80;95.10;;;;;;5124688;27;20205;-78
2021/06/11 06:01:37;;;;;;;5.05;4.05;;;22.80;95.10;;;;;;5128701;27;20203;-78
2021/06/11 06:04:03;;;;;;;4.30;4.10;;;22.80;95.00;;;;;;5128863;27;20236;-78
2021/06/11 06:06:30;;;;;;;5.07;4.47;;;22.90;94.80;;;;;;5126043;27;20427;-78
2021/06/11 06:08:56;;;;;;;4.32;4.00;;;22.90;94.80;;;;;;5127896;27;20227;-78
2021/06/11 06:11:23;;;;;;;6.45;4.22;;;22.90;94.50;;;;;;5128044;27;20610;-78
2021/06/11 06:13:50;;;;;;;6.22;4.53;;;22.90;94.20;;;;;;5127448;27;20205;-78
2021/06/11 06:16:17;;;;;;;5.15;4.03;;;23.00;94.20;;;;;;5127663;27;20194;-78
2021/06/11 06:18:44;;;;;;;4.15;3.75;;;23.00;93.80;;;;;;5121893;28;20198;-77
2021/06/11 06:21:10;;;;;;;3.50;3.17;;;23.00;93.30;;;;;;5125917;28;20193;-78
2021/06/11 06:23:36;;;;;;;8.30;3.72;;;23.00;93.10;;;;;;5128069;28;20197;-79
2021/06/11 06:26:02;;;;;;;3.90;3.60;;;23.00;92.90;;;;;;5127971;28;20213;-78
2021/06/11 06:28:30;;;;;;;3.90;3.60;;;23.00;92.80;;;;;;5127656;28;20198;-79
2021/06/11 06:30:56;;;;;;;3.60;3.38;;;23.00;92.90;;;;;;5123600;28;20224;-77
2021/06/11 06:33:22;;;;;;;5.40;3.85;;;23.10;93.20;;;;;;5118307;28;20606;-78
2021/06/11 06:35:48;;;;;;;4.47;3.15;;;23.10;93.30;;;;;;5117346;28;20258;-77
2021/06/11 06:38:15;;;;;;;3.50;3.22;;;23.20;93.50;;;;;;5122309;28;20198;-76
2021/06/11 06:40:43;;;;;;;3.53;3.22;;;23.20;93.10;;;;;;5129014;28;20213;-76
2021/06/11 06:43:09;;;;;;;3.85;3.47;;;23.20;93.00;;;;;;5128937;28;20197;-75
2021/06/11 06:45:36;;;;;;;4.00;3.80;;;23.20;92.70;;;;;;5126449;28;20209;-75
2021/06/11 06:48:02;;;;;;;3.50;3.30;;;23.20;92.90;;;;;;5127824;28;20205;-75
2021/06/11 06:50:29;;;;;;;4.15;3.30;;;23.30;91.80;;;;;;5127632;28;20232;-75
2021/06/11 06:52:55;;;;;;;3.25;2.95;;;23.30;90.90;;;;;;5127635;28;20205;-75
2021/06/11 06:55:22;;;;;;;3.10;2.90;;;23.30;91.00;;;;;;5127637;28;20316;-75
2021/06/11 06:57:48;;;;;;;3.50;3.20;;;23.30;91.00;;;;;;5127468;28;20201;-75
2021/06/11 07:00:15;;;;;;;3.47;3.25;;;23.30;90.60;;;;;;5127842;28;20199;-75
2021/06/11 07:02:43;;;;;;;3.38;3.13;;;23.30;90.50;;;;;;5128921;27;20217;-75
2021/06/11 07:05:10;;;;;;;3.88;3.60;;;23.30;90.70;;;;;;5128226;28;20726;-75
2021/06/11 07:07:36;;;;;;;4.07;3.75;;;23.30;90.90;;;;;;5128924;27;20287;-76
2021/06/11 07:10:03;;;;;;;4.03;3.60;;;23.30;90.90;;;;;;5128359;27;20695;-75
2021/06/11 07:12:29;;;;;;;4.82;4.00;;;23.40;91.10;;;;;;5128589;27;20742;-75
2021/06/11 07:14:55;;;;;;;4.45;3.97;;;23.50;91.00;;;;;;5128475;28;20952;-75
2021/06/11 07:17:21;;;;;;;4.75;4.45;;;23.50;90.60;;;;;;5128865;28;20206;-75
2021/06/11 07:19:49;;;;;;;4.07;3.67;;;23.50;90.70;;;;;;5128980;28;20201;-75
2021/06/11 07:22:15;;;;;;;6.15;4.05;;;23.60;90.70;;;;;;5128661;28;20201;-75
2021/06/11 07:24:41;;;;;;;4.05;3.70;;;23.60;90.60;;;;;;5129367;27;20258;-75
2021/06/11 07:27:08;;;;;;;5.90;3.60;;;23.60;90.80;;;;;;5132318;27;20237;-75
2021/06/11 07:29:40;;;;;;;4.13;3.88;;;23.60;90.90;;;;;;5132279;27;20233;-75
2021/06/11 07:32:07;;;;;;;4.25;3.95;;;23.50;91.00;;;;;;5132294;27;20194;-75
2021/06/11 07:34:33;;;;;;;4.88;4.53;;;23.50;91.50;;;;;;5132087;27;20202;-75
2021/06/11 07:37:00;;;;;;;4.22;3.80;;;23.50;91.20;;;;;;5132318;27;20197;-75
2021/06/11 07:39:27;;;;;;;4.97;4.00;;;23.50;91.10;;;;;;5132295;27;20209;-75
2021/06/11 07:41:54;;;;;;;4.90;4.50;;;23.60;90.90;;;;;;5132242;27;20205;-76
2021/06/11 07:44:20;;;;;;;3.60;3.30;;;23.70;90.80;;;;;;5132124;27;20237;-75
2021/06/11 07:46:47;;;;;;;4.55;3.70;;;23.60;90.90;;;;;;5132332;27;20294;-75
2021/06/11 07:49:14;;;;;;;6.82;3.60;;;23.60;91.00;;;;;;5132018;27;20206;-75
2021/06/11 07:51:40;;;;;;;7.45;3.90;;;23.70;91.00;;;;;;5131889;27;20198;-75
2021/06/11 07:54:08;;;;;;;3.70;3.45;;;23.70;91.00;;;;;;5132021;27;20225;-76
2021/06/11 07:56:34;;;;;;;3.88;3.33;;;23.80;90.80;;;;;;5131989;27;20205;-75
2021/06/11 07:59:01;;;;;;;3.75;3.40;;;23.80;90.80;;;;;;5131771;27;20205;-75
2021/06/11 08:01:27;;;;;;;4.22;3.97;;;23.90;90.60;;;;;;5131595;27;20662;-75
2021/06/11 08:03:53;;;;;;;4.50;4.20;;;23.80;90.40;;;;;;5131709;27;20237;-75
2021/06/11 08:06:19;;;;;;;4.32;4.03;;;23.90;90.60;;;;;;5131673;27;20205;-75
2021/06/11 08:08:45;;;;;;;3.90;3.60;;;24.00;90.60;;;;;;5131846;27;20206;-75
2021/06/11 08:11:12;;;;;;;6.85;4.40;;;24.00;90.70;;;;;;5131366;27;20241;-75
2021/06/11 08:13:39;;;;;;;5.63;4.53;;;24.10;90.20;;;;;;5131445;27;20205;-75
2021/06/11 08:16:05;;;;;;;5.22;3.83;;;24.00;90.20;;;;;;5131479;27;20201;-76
2021/06/11 08:18:32;;;;;;;4.53;2.97;;;24.10;90.20;;;;;;5131618;27;20205;-75
2021/06/11 08:20:58;;;;;;;4.30;3.92;;;24.10;90.30;;;;;;5131404;27;20236;-75
2021/06/11 08:23:24;;;;;;;7.72;3.42;;;24.30;90.60;;;;;;5131177;27;20197;-76
2021/06/11 08:25:51;;;;;;;14.68;3.78;;;24.40;90.50;;;;;;5131631;27;20217;-75
2021/06/11 08:28:18;;;;;;;9.27;3.53;;;24.40;90.40;;;;;;5131363;27;20206;-75
2021/06/11 08:30:44;;;;;;;3.55;3.17;;;24.50;90.50;;;;;;5131050;27;20243;-75
2021/06/11 08:33:10;;;;;;;4.95;4.55;;;24.40;90.00;;;;;;5131161;27;20214;-75
2021/06/11 08:35:37;;;;;;;5.50;4.50;;;24.50;88.20;;;;;;5130864;27;20205;-75
2021/06/11 08:38:03;;;;;;;5.43;4.90;;;24.40;87.40;;;;;;5131154;27;20201;-75
2021/06/11 08:40:29;;;;;;;4.90;4.50;;;24.40;87.60;;;;;;5131083;27;20208;-75
2021/06/11 08:42:56;;;;;;;21.65;4.90;;;24.30;87.80;;;;;;5130836;27;20201;-75
2021/06/11 08:45:24;;;;;;;4.82;4.43;;;24.40;87.50;;;;;;5130632;27;20209;-75
2021/06/11 08:47:52;;;;;;;4.30;3.90;;;24.40;87.30;;;;;;5130667;27;20659;-75
2021/06/11 08:50:20;;;;;;;6.20;4.93;;;24.50;86.90;;;;;;5130782;27;20225;-75
2021/06/11 08:52:47;;;;;;;4.55;4.15;;;24.50;85.70;;;;;;5130602;27;20663;-76
2021/06/11 08:55:15;;;;;;;4.20;3.90;;;24.60;85.50;;;;;;5130265;27;20226;-75
2021/06/11 08:57:41;;;;;;;5.75;4.82;;;24.60;86.40;;;;;;5130286;27;20688;-76
2021/06/11 09:00:09;;;;;;;5.25;4.95;;;24.80;86.00;;;;;;5130873;27;20208;-76
2021/06/11 09:03:17;;;;;;;5.45;4.07;;;24.80;86.10;;;;;;5130725;27;20205;-75
2021/06/11 09:05:44;;;;;;;4.40;4.05;;;24.90;84.40;;;;;;5129972;27;20247;-76
2021/06/11 09:08:16;;;;;;;4.47;3.97;;;24.90;84.10;;;;;;5130151;27;20202;-76
2021/06/11 09:10:43;;;;;;;4.50;4.03;;;25.00;84.20;;;;;;5130035;27;20225;-75
2021/06/11 09:13:10;;;;;;;5.60;3.90;;;25.00;84.50;;;;;;5129794;27;20205;-76
2021/06/11 09:15:36;;;;;;;4.03;3.58;;;25.10;84.10;;;;;;5130373;27;20206;-76
2021/06/11 09:18:19;;;;;;;4.25;3.83;;;25.20;85.00;;;;;;5130356;27;20198;-75
2021/06/11 09:20:45;;;;;;;5.68;4.60;;;25.40;83.50;;;;;;5130551;27;20215;-76
2021/06/11 09:23:11;;;;;;;3.80;3.40;;;25.40;82.20;;;;;;5130099;27;20201;-76
2021/06/11 09:25:41;;;;;;;3.13;2.83;;;25.40;82.50;;;;;;5130302;27;20201;-75
2021/06/11 09:28:10;;;;;;;3.13;2.78;;;25.40;81.50;;;;;;5129898;27;20216;-75
2021/06/11 09:30:49;;;;;;;3.92;2.92;;;25.50;81.20;;;;;;5129935;27;20229;-76
2021/06/11 09:33:18;;;;;;;3.28;2.97;;;25.60;80.80;;;;;;5129924;27;20192;-76
2021/06/11 09:35:46;;;;;;;2.90;2.70;;;25.70;80.10;;;;;;5130047;27;20206;-75
2021/06/11 09:38:15;;;;;;;4.43;2.40;;;25.70;80.20;;;;;;5129702;27;20201;-76
2021/06/11 09:40:43;;;;;;;3.67;2.90;;;25.90;82.10;;;;;;5129668;27;20849;-75
2021/06/11 09:43:10;;;;;;;12.02;4.03;;;26.00;81.10;;;;;;5129674;27;20201;-76
2021/06/11 09:45:36;;;;;;;3.58;2.30;;;26.00;79.70;;;;;;5129767;27;20202;-75
2021/06/11 09:48:17;;;;;;;2.42;2.20;;;26.00;79.60;;;;;;5129300;27;20217;-76
2021/06/11 09:50:48;;;;;;;4.63;2.20;;;26.10;79.90;;;;;;5129625;27;20224;-76
2021/06/11 09:53:15;;;;;;;3.60;2.10;;;26.20;80.60;;;;;;5129646;27;20199;-76
2021/06/11 09:55:43;;;;;;;3.08;2.50;;;26.30;79.50;;;;;;5129625;27;20229;-75
2021/06/11 09:58:14;;;;;;;3.20;2.33;;;26.40;78.60;;;;;;5129313;27;20584;-76
2021/06/11 10:00:51;;;;;;;4.85;2.30;;;26.30;79.00;;;;;;5129749;27;20250;-75
2021/06/11 10:03:21;;;;;;;3.45;2.53;;;26.40;79.30;;;;;;5129598;27;20185;-75
2021/06/11 10:05:49;;;;;;;3.47;2.70;;;26.40;78.90;;;;;;5129186;27;20240;-76
2021/06/11 10:08:31;;;;;;;2.75;2.55;;;26.50;79.00;;;;;;5105626;27;20205;-76
2021/06/11 10:11:00;;;;;;;4.95;2.70;;;26.70;80.20;;;;;;5129395;27;20237;-76
2021/06/11 10:13:26;;;;;;;3.50;3.20;;;26.50;79.80;;;;;;5129104;27;20212;-75
2021/06/11 10:15:54;;;;;;;3.88;3.58;;;26.40;80.40;;;;;;5129412;27;20201;-76
2021/06/11 10:18:22;;;;;;;3.33;3.10;;;26.40;81.80;;;;;;5129313;27;20234;-76
2021/06/11 10:20:49;;;;;;;10.55;3.00;;;26.60;81.70;;;;;;5129404;27;20265;-75
2021/06/11 10:23:17;;;;;;;2.92;2.70;;;26.60;80.70;;;;;;5129595;28;20273;-75
2021/06/11 10:25:44;;;;;;;3.08;2.88;;;26.50;79.40;;;;;;5129334;27;20612;-76
2021/06/11 10:28:14;;;;;;;4.45;2.67;;;26.40;79.90;;;;;;5128937;28;20315;-76
2021/06/11 10:30:41;;;;;;;2.20;2.10;;;26.50;80.10;;;;;;5129285;28;20236;-76
2021/06/11 10:33:07;;;;;;;2.70;2.50;;;26.70;80.00;;;;;;5129351;28;20243;-76
2021/06/11 10:35:40;;;;;;;3.90;2.80;;;26.90;80.60;;;;;;5129180;28;20201;-76
2021/06/11 10:38:11;;;;;;;3.45;2.63;;;27.10;79.50;;;;;;5128790;28;20197;-76
2021/06/11 10:40:39;;;;;;;4.10;2.40;;;27.20;78.90;;;;;;5129129;28;20190;-76
2021/06/11 10:43:25;;;;;;;4.88;2.58;;;27.40;78.70;;;;;;5129154;28;20205;-76
2021/06/11 10:45:52;;;;;;;4.95;2.90;;;27.10;77.80;;;;;;5128786;28;20675;-76
2021/06/11 10:48:19;;;;;;;2.50;2.40;;;26.90;78.10;;;;;;5128951;27;20209;-76
2021/06/11 10:50:47;;;;;;;3.30;2.65;;;26.90;78.20;;;;;;5129151;28;20225;-75
2021/06/11 10:53:27;;;;;;;2.17;2.00;;;26.80;77.40;;;;;;5128812;28;20209;-76
2021/06/11 10:56:13;;;;;;;2.90;2.60;;;27.00;79.80;;;;;;5128710;27;20599;-76
2021/06/11 10:58:40;;;;;;;2.38;2.17;;;27.20;77.70;;;;;;5127405;27;20196;-75
2021/06/11 11:01:24;;;;;;;2.58;2.40;;;27.20;77.70;;;;;;5131339;27;20547;-75
2021/06/11 11:03:51;;;;;;;5.45;2.60;;;27.30;78.00;;;;;;5131209;27;20233;-76
2021/06/11 11:06:35;;;;;;;4.55;3.40;;;27.60;78.50;;;;;;5131892;27;20189;-75
2021/06/11 11:09:06;;;;;;;4.45;2.53;;;27.80;77.60;;;;;;5128072;27;20196;-78
2021/06/11 11:11:35;;;;;;;9.63;2.58;;;28.00;76.80;;;;;;5126648;27;20225;-78
2021/06/11 11:14:03;;;;;;;3.20;2.20;;;28.10;77.90;;;;;;5125833;27;20887;-75
2021/06/11 11:16:37;;;;;;;2.60;2.40;;;28.30;78.30;;;;;;5128673;27;20197;-75
2021/06/11 11:19:05;;;;;;;2.78;2.22;;;28.50;76.90;;;;;;5129581;27;20194;-75
2021/06/11 11:21:35;;;;;;;5.95;2.22;;;28.60;75.10;;;;;;5130969;27;20286;-76
2021/06/11 11:24:05;;;;;;;1.92;1.67;;;28.40;74.70;;;;;;5131542;27;20622;-76
2021/06/11 11:26:43;;;;;;;2.75;1.85;;;28.30;74.90;;;;;;5131355;27;20288;-75
2021/06/11 11:29:10;;;;;;;1.70;1.60;;;28.50;75.30;;;;;;5130430;27;20891;-75
2021/06/11 11:31:37;;;;;;;2.08;1.60;;;28.70;74.70;;;;;;5131145;27;20224;-76
2021/06/11 11:34:04;;;;;;;1.90;1.52;;;29.00;74.70;;;;;;5131347;27;20208;-76
2021/06/11 11:36:32;;;;;;;1.60;1.50;;;29.40;74.80;;;;;;5130799;27;20675;-76
2021/06/11 11:38:59;;;;;;;4.45;1.90;;;29.70;73.90;;;;;;5131371;27;20209;-75
2021/06/11 11:41:25;;;;;;;4.28;1.90;;;30.00;71.90;;;;;;5131205;27;20193;-76
2021/06/11 11:43:51;;;;;;;1.80;1.70;;;30.10;71.90;;;;;;5130943;27;20213;-76
2021/06/11 11:46:18;;;;;;;1.58;1.58;;;30.00;70.50;;;;;;5130670;27;20194;-75
2021/06/11 11:48:44;;;;;;;3.28;1.80;;;29.40;70.20;;;;;;5129169;27;20197;-75
2021/06/11 11:51:10;;;;;;;1.73;1.63;;;29.60;71.30;;;;;;5129740;27;20229;-79
2021/06/11 11:53:37;;;;;;;4.47;2.05;;;29.90;71.20;;;;;;5128103;27;20229;-80
2021/06/11 11:56:04;;;;;;;1.70;1.65;;;29.90;70.30;;;;;;5129871;27;20567;-76
2021/06/11 11:58:30;;;;;;;4.63;2.22;;;30.10;72.00;;;;;;5127722;27;20201;-76
2021/06/11 12:00:56;;;;;;;2.50;2.40;;;30.10;69.10;;;;;;5129817;27;20227;-74
2021/06/11 12:03:23;;;;;;;3.90;2.35;;;30.30;70.10;;;;;;5130403;27;20655;-76
2021/06/11 12:05:49;;;;;;;3.88;3.10;;;29.80;70.10;;;;;;5129339;27;20236;-76
2021/06/11 12:08:15;;;;;;;3.70;1.80;;;29.10;70.70;;;;;;5127381;27;20197;-74
2021/06/11 12:10:41;;;;;;;3.20;1.63;;;29.30;71.20;;;;;;5126015;27;20274;-76
2021/06/11 12:13:09;;;;;;;1.80;1.70;;;29.60;70.80;;;;;;5126618;27;20258;-76
2021/06/11 12:15:35;;;;;;;1.75;1.65;;;29.90;69.90;;;;;;5121382;27;20614;-76
2021/06/11 12:18:01;;;;;;;2.55;1.73;;;30.10;69.60;;;;;;5129781;27;20193;-76
2021/06/11 12:20:31;;;;;;;2.63;1.60;;;30.30;69.60;;;;;;5130197;27;20197;-76
2021/06/11 12:22:58;;;;;;;2.20;2.00;;;30.30;68.50;;;;;;5128024;27;20218;-77
2021/06/11 12:25:25;;;;;;;1.92;1.60;;;30.00;68.50;;;;;;5129147;27;20197;-76
2021/06/11 12:27:51;;;;;;;1.58;1.48;;;30.30;69.00;;;;;;5130400;27;20228;-76
2021/06/11 12:30:19;;;;;;;2.20;1.52;;;30.40;68.90;;;;;;5129428;27;20675;-76
2021/06/11 12:32:45;;;;;;;1.80;1.70;;;30.10;69.10;;;;;;5130290;27;20198;-76
2021/06/11 12:35:12;;;;;;;3.42;1.77;;;30.40;69.80;;;;;;5129987;27;20233;-76
2021/06/11 12:37:39;;;;;;;6.28;1.77;;;30.40;69.50;;;;;;5126140;27;20214;-76
2021/06/11 12:40:06;;;;;;;1.98;1.83;;;30.60;68.80;;;;;;5117491;27;20202;-76
2021/06/11 12:42:35;;;;;;;6.10;2.20;;;30.60;68.60;;;;;;5130000;27;20194;-76
2021/06/11 12:45:02;;;;;;;2.10;2.00;;;30.60;68.40;;;;;;5129879;27;20204;-76
2021/06/11 12:47:29;;;;;;;3.00;1.75;;;30.30;69.00;;;;;;5129718;27;20210;-76
2021/06/11 12:49:55;;;;;;;2.95;1.83;;;30.30;69.50;;;;;;5130096;27;20246;-76